sensor_id;sensor_type;location;lat;lon;timestamp;temperature;humidity
17152;DHT22;8691;50.828;4.700;2023-03-11T00:00:21;1.30;99.90
17152;DHT22;8691;50.828;4.700;2023-03-11T00:02:57;1.10;99.90
17152;DHT22;8691;50.828;4.700;2023-03-11T00:05:37;1.00;99.90
17152;DHT22;8691;50.828;4.700;2023-03-11T00:08:14;0.90;99.90
17152;DHT22;8691;50.828;4.700;2023-03-11T00:10:56;0.70;99.90
17152;DHT22;8691;50.828;4.700;2023-03-11T00:13:32;0.60;99.90
17152;DHT22;8691;50.828;4.700;2023-03-11T00:16:10;0.40;99.90
17152;DHT22;8691;50.828;4.700;2023-03-11T00:18:49;0.40;99.90
17152;DHT22;8691;50.828;4.700;2023-03-11T00:21:23;0.30;99.90
17152;DHT22;8691;50.828;4.700;2023-03-11T00:24:00;0.30;99.90
17152;DHT22;8691;50.828;4.700;2023-03-11T00:26:36;0.20;99.90
17152;DHT22;8691;50.828;4.700;2023-03-11T00:29:13;0.20;99.90
17152;DHT22;8691;50.828;4.700;2023-03-11T00:31:50;0.10;99.90
17152;DHT22;8691;50.828;4.700;2023-03-11T00:34:26;0.10;99.90
17152;DHT22;8691;50.828;4.700;2023-03-11T00:37:03;0.00;99.90
17152;DHT22;8691;50.828;4.700;2023-03-11T00:39:40;0.00;99.90
17152;DHT22;8691;50.828;4.700;2023-03-11T00:42:16;0.00;99.90
17152;DHT22;8691;50.828;4.700;2023-03-11T00:44:53;0.00;99.90
17152;DHT22;8691;50.828;4.700;2023-03-11T00:47:29;0.10;99.90
17152;DHT22;8691;50.828;4.700;2023-03-11T00:50:07;-0.10;99.90
17152;DHT22;8691;50.828;4.700;2023-03-11T00:52:44;-0.10;99.90
17152;DHT22;8691;50.828;4.700;2023-03-11T00:55:25;-0.10;99.90
17152;DHT22;8691;50.828;4.700;2023-03-11T00:57:58;-0.10;99.90
17152;DHT22;8691;50.828;4.700;2023-03-11T01:00:34;0.00;99.90
17152;DHT22;8691;50.828;4.700;2023-03-11T01:03:11;0.00;99.90
17152;DHT22;8691;50.828;4.700;2023-03-11T01:05:48;0.00;99.90
17152;DHT22;8691;50.828;4.700;2023-03-11T01:08:25;-0.10;99.90
17152;DHT22;8691;50.828;4.700;2023-03-11T01:11:03;-0.10;99.90
17152;DHT22;8691;50.828;4.700;2023-03-11T01:13:38;-0.10;99.90
17152;DHT22;8691;50.828;4.700;2023-03-11T01:16:16;-0.30;99.90
17152;DHT22;8691;50.828;4.700;2023-03-11T01:18:53;-0.30;99.90
17152;DHT22;8691;50.828;4.700;2023-03-11T01:21:29;-0.30;99.90
17152;DHT22;8691;50.828;4.700;2023-03-11T01:24:07;-0.40;99.90
17152;DHT22;8691;50.828;4.700;2023-03-11T01:26:43;-0.50;99.90
17152;DHT22;8691;50.828;4.700;2023-03-11T01:29:20;-0.50;99.90
17152;DHT22;8691;50.828;4.700;2023-03-11T01:31:57;-0.50;99.90
17152;DHT22;8691;50.828;4.700;2023-03-11T01:34:33;-0.50;99.90
17152;DHT22;8691;50.828;4.700;2023-03-11T01:37:10;-0.50;99.90
17152;DHT22;8691;50.828;4.700;2023-03-11T01:39:47;-0.50;99.90
17152;DHT22;8691;50.828;4.700;2023-03-11T01:42:24;-0.50;99.90
17152;DHT22;8691;50.828;4.700;2023-03-11T01:45:00;-0.50;99.90
17152;DHT22;8691;50.828;4.700;2023-03-11T01:47:38;-0.50;99.90
17152;DHT22;8691;50.828;4.700;2023-03-11T01:50:14;-0.50;99.90
17152;DHT22;8691;50.828;4.700;2023-03-11T01:52:50;-0.50;99.90
17152;DHT22;8691;50.828;4.700;2023-03-11T01:55:27;-0.50;99.90
17152;DHT22;8691;50.828;4.700;2023-03-11T01:58:05;-0.40;99.90
17152;DHT22;8691;50.828;4.700;2023-03-11T02:00:41;-0.40;99.90
17152;DHT22;8691;50.828;4.700;2023-03-11T02:03:20;-0.30;99.90
17152;DHT22;8691;50.828;4.700;2023-03-11T02:05:54;-0.20;99.90
17152;DHT22;8691;50.828;4.700;2023-03-11T02:08:31;-0.10;99.90
17152;DHT22;8691;50.828;4.700;2023-03-11T02:11:09;0.00;99.90
17152;DHT22;8691;50.828;4.700;2023-03-11T02:13:44;0.10;99.90
17152;DHT22;8691;50.828;4.700;2023-03-11T02:16:22;0.30;99.90
17152;DHT22;8691;50.828;4.700;2023-03-11T02:18:59;0.30;99.90
17152;DHT22;8691;50.828;4.700;2023-03-11T02:21:35;0.40;99.90
17152;DHT22;8691;50.828;4.700;2023-03-11T02:24:34;0.40;99.90
17152;DHT22;8691;50.828;4.700;2023-03-11T02:27:10;0.50;99.90
17152;DHT22;8691;50.828;4.700;2023-03-11T02:29:45;0.60;99.90
17152;DHT22;8691;50.828;4.700;2023-03-11T02:32:23;0.60;99.90
17152;DHT22;8691;50.828;4.700;2023-03-11T02:34:59;0.60;99.90
17152;DHT22;8691;50.828;4.700;2023-03-11T02:37:42;0.60;99.90
17152;DHT22;8691;50.828;4.700;2023-03-11T02:43:00;0.70;99.90
17152;DHT22;8691;50.828;4.700;2023-03-11T02:45:36;0.70;99.90
17152;DHT22;8691;50.828;4.700;2023-03-11T02:48:13;0.80;99.90
17152;DHT22;8691;50.828;4.700;2023-03-11T02:50:49;0.80;99.90
17152;DHT22;8691;50.828;4.700;2023-03-11T02:53:26;0.90;99.90
17152;DHT22;8691;50.828;4.700;2023-03-11T02:56:03;1.00;99.90
17152;DHT22;8691;50.828;4.700;2023-03-11T02:58:39;1.00;99.90
17152;DHT22;8691;50.828;4.700;2023-03-11T03:01:16;1.00;99.90
17152;DHT22;8691;50.828;4.700;2023-03-11T03:03:53;0.80;99.90
17152;DHT22;8691;50.828;4.700;2023-03-11T03:06:30;0.70;99.90
17152;DHT22;8691;50.828;4.700;2023-03-11T03:09:07;0.40;99.90
17152;DHT22;8691;50.828;4.700;2023-03-11T03:11:44;0.40;99.90
17152;DHT22;8691;50.828;4.700;2023-03-11T03:14:21;0.20;99.90
17152;DHT22;8691;50.828;4.700;2023-03-11T03:16:58;0.20;99.90
17152;DHT22;8691;50.828;4.700;2023-03-11T03:19:35;0.10;99.90
17152;DHT22;8691;50.828;4.700;2023-03-11T03:22:11;0.00;99.90
17152;DHT22;8691;50.828;4.700;2023-03-11T03:24:48;0.00;99.90
17152;DHT22;8691;50.828;4.700;2023-03-11T03:27:25;0.00;99.90
17152;DHT22;8691;50.828;4.700;2023-03-11T03:30:02;0.10;99.90
17152;DHT22;8691;50.828;4.700;2023-03-11T03:32:39;0.00;99.90
17152;DHT22;8691;50.828;4.700;2023-03-11T03:35:15;0.00;99.90
17152;DHT22;8691;50.828;4.700;2023-03-11T03:37:52;0.00;99.90
17152;DHT22;8691;50.828;4.700;2023-03-11T03:40:29;-0.10;99.90
17152;DHT22;8691;50.828;4.700;2023-03-11T03:43:05;-0.10;99.90
17152;DHT22;8691;50.828;4.700;2023-03-11T03:45:42;-0.10;99.90
17152;DHT22;8691;50.828;4.700;2023-03-11T03:48:19;0.00;99.90
17152;DHT22;8691;50.828;4.700;2023-03-11T03:50:55;0.10;99.90
17152;DHT22;8691;50.828;4.700;2023-03-11T03:53:35;0.20;99.90
17152;DHT22;8691;50.828;4.700;2023-03-11T03:56:13;0.20;99.90
17152;DHT22;8691;50.828;4.700;2023-03-11T03:58:48;0.20;99.90
17152;DHT22;8691;50.828;4.700;2023-03-11T04:01:25;0.30;99.90
17152;DHT22;8691;50.828;4.700;2023-03-11T04:04:02;0.20;99.90
17152;DHT22;8691;50.828;4.700;2023-03-11T04:06:39;0.20;99.90
17152;DHT22;8691;50.828;4.700;2023-03-11T04:09:16;0.20;99.90
17152;DHT22;8691;50.828;4.700;2023-03-11T04:11:53;0.20;99.90
17152;DHT22;8691;50.828;4.700;2023-03-11T04:14:30;0.10;99.90
17152;DHT22;8691;50.828;4.700;2023-03-11T04:17:07;0.10;99.90
17152;DHT22;8691;50.828;4.700;2023-03-11T04:19:44;-0.10;99.90
17152;DHT22;8691;50.828;4.700;2023-03-11T04:22:21;-0.10;99.90
17152;DHT22;8691;50.828;4.700;2023-03-11T04:24:58;-0.20;99.90
17152;DHT22;8691;50.828;4.700;2023-03-11T04:27:34;-0.20;99.90
17152;DHT22;8691;50.828;4.700;2023-03-11T04:30:11;-0.40;99.90
17152;DHT22;8691;50.828;4.700;2023-03-11T04:32:48;-0.40;99.90
17152;DHT22;8691;50.828;4.700;2023-03-11T04:35:24;-0.50;99.90
17152;DHT22;8691;50.828;4.700;2023-03-11T04:38:01;-0.50;99.90
17152;DHT22;8691;50.828;4.700;2023-03-11T04:40:38;-0.60;99.90
17152;DHT22;8691;50.828;4.700;2023-03-11T04:43:15;-0.70;99.90
17152;DHT22;8691;50.828;4.700;2023-03-11T04:45:52;-0.70;99.90
17152;DHT22;8691;50.828;4.700;2023-03-11T04:48:29;-0.70;99.90
17152;DHT22;8691;50.828;4.700;2023-03-11T04:51:06;-0.70;99.90
17152;DHT22;8691;50.828;4.700;2023-03-11T04:53:43;-0.70;99.90
17152;DHT22;8691;50.828;4.700;2023-03-11T04:56:20;-0.80;99.90
17152;DHT22;8691;50.828;4.700;2023-03-11T04:58:57;-0.80;99.90
17152;DHT22;8691;50.828;4.700;2023-03-11T05:01:34;-0.80;99.90
17152;DHT22;8691;50.828;4.700;2023-03-11T05:04:10;-0.90;99.90
17152;DHT22;8691;50.828;4.700;2023-03-11T05:06:47;-0.90;99.90
17152;DHT22;8691;50.828;4.700;2023-03-11T05:09:24;-0.90;99.90
17152;DHT22;8691;50.828;4.700;2023-03-11T05:12:00;-1.00;99.90
17152;DHT22;8691;50.828;4.700;2023-03-11T05:14:37;-1.00;99.90
17152;DHT22;8691;50.828;4.700;2023-03-11T05:17:14;-1.10;99.90
17152;DHT22;8691;50.828;4.700;2023-03-11T05:19:51;-1.10;99.90
17152;DHT22;8691;50.828;4.700;2023-03-11T05:22:27;-1.10;99.90
17152;DHT22;8691;50.828;4.700;2023-03-11T05:25:04;-1.20;99.90
17152;DHT22;8691;50.828;4.700;2023-03-11T05:27:41;-1.20;99.90
17152;DHT22;8691;50.828;4.700;2023-03-11T05:30:17;-1.30;99.90
17152;DHT22;8691;50.828;4.700;2023-03-11T05:32:54;-1.30;99.90
17152;DHT22;8691;50.828;4.700;2023-03-11T05:35:31;-1.30;99.90
17152;DHT22;8691;50.828;4.700;2023-03-11T05:38:07;-1.30;99.90
17152;DHT22;8691;50.828;4.700;2023-03-11T05:40:45;-1.40;99.90
17152;DHT22;8691;50.828;4.700;2023-03-11T05:43:21;-1.40;99.90
17152;DHT22;8691;50.828;4.700;2023-03-11T05:45:58;-1.50;99.90
17152;DHT22;8691;50.828;4.700;2023-03-11T05:48:35;-1.50;99.90
17152;DHT22;8691;50.828;4.700;2023-03-11T05:51:12;-1.50;99.90
17152;DHT22;8691;50.828;4.700;2023-03-11T05:53:48;-1.50;99.90
17152;DHT22;8691;50.828;4.700;2023-03-11T05:56:25;-1.50;99.90
17152;DHT22;8691;50.828;4.700;2023-03-11T05:59:02;-1.50;99.90
17152;DHT22;8691;50.828;4.700;2023-03-11T06:01:39;-1.60;99.90
17152;DHT22;8691;50.828;4.700;2023-03-11T06:04:16;-1.60;99.90
17152;DHT22;8691;50.828;4.700;2023-03-11T06:06:52;-1.50;99.90
17152;DHT22;8691;50.828;4.700;2023-03-11T06:09:29;-1.60;99.90
17152;DHT22;8691;50.828;4.700;2023-03-11T06:12:06;-1.60;99.90
17152;DHT22;8691;50.828;4.700;2023-03-11T06:14:42;-1.60;99.90
17152;DHT22;8691;50.828;4.700;2023-03-11T06:17:19;-1.50;99.90
17152;DHT22;8691;50.828;4.700;2023-03-11T06:19:56;-1.50;99.90
17152;DHT22;8691;50.828;4.700;2023-03-11T06:22:32;-1.50;99.90
17152;DHT22;8691;50.828;4.700;2023-03-11T06:25:09;-1.40;99.90
17152;DHT22;8691;50.828;4.700;2023-03-11T06:27:49;-1.30;99.90
17152;DHT22;8691;50.828;4.700;2023-03-11T06:30:25;-1.30;99.90
17152;DHT22;8691;50.828;4.700;2023-03-11T06:33:02;-1.20;99.90
17152;DHT22;8691;50.828;4.700;2023-03-11T06:35:39;-1.20;99.90
17152;DHT22;8691;50.828;4.700;2023-03-11T06:38:15;-1.10;99.90
17152;DHT22;8691;50.828;4.700;2023-03-11T06:40:52;-1.00;99.90
17152;DHT22;8691;50.828;4.700;2023-03-11T06:43:29;-0.80;99.90
17152;DHT22;8691;50.828;4.700;2023-03-11T06:46:08;-0.70;99.90
17152;DHT22;8691;50.828;4.700;2023-03-11T06:48:45;-0.50;99.90
17152;DHT22;8691;50.828;4.700;2023-03-11T06:51:21;-0.40;99.90
17152;DHT22;8691;50.828;4.700;2023-03-11T06:53:58;-0.40;99.90
17152;DHT22;8691;50.828;4.700;2023-03-11T06:56:34;-0.40;99.90
17152;DHT22;8691;50.828;4.700;2023-03-11T06:59:13;-0.30;99.90
17152;DHT22;8691;50.828;4.700;2023-03-11T07:01:49;-0.30;99.90
17152;DHT22;8691;50.828;4.700;2023-03-11T07:04:26;-0.10;99.90
17152;DHT22;8691;50.828;4.700;2023-03-11T07:07:03;-0.10;99.90
17152;DHT22;8691;50.828;4.700;2023-03-11T07:09:39;0.00;99.90
17152;DHT22;8691;50.828;4.700;2023-03-11T07:12:16;0.20;99.90
17152;DHT22;8691;50.828;4.700;2023-03-11T07:14:54;0.30;99.90
17152;DHT22;8691;50.828;4.700;2023-03-11T07:17:29;0.40;99.90
17152;DHT22;8691;50.828;4.700;2023-03-11T07:20:06;0.50;99.90
17152;DHT22;8691;50.828;4.700;2023-03-11T07:22:43;0.60;99.90
17152;DHT22;8691;50.828;4.700;2023-03-11T07:25:20;0.70;99.90
17152;DHT22;8691;50.828;4.700;2023-03-11T07:27:56;0.80;99.90
17152;DHT22;8691;50.828;4.700;2023-03-11T07:30:33;0.90;99.90
17152;DHT22;8691;50.828;4.700;2023-03-11T07:33:09;1.10;99.90
17152;DHT22;8691;50.828;4.700;2023-03-11T07:35:46;1.20;99.90
17152;DHT22;8691;50.828;4.700;2023-03-11T07:38:23;1.60;99.90
17152;DHT22;8691;50.828;4.700;2023-03-11T07:41:00;2.70;99.90
17152;DHT22;8691;50.828;4.700;2023-03-11T07:43:36;4.20;99.90
17152;DHT22;8691;50.828;4.700;2023-03-11T07:46:14;5.80;99.90
17152;DHT22;8691;50.828;4.700;2023-03-11T07:48:50;6.70;99.90
17152;DHT22;8691;50.828;4.700;2023-03-11T07:51:27;7.50;99.90
17152;DHT22;8691;50.828;4.700;2023-03-11T07:54:03;8.10;99.90
17152;DHT22;8691;50.828;4.700;2023-03-11T07:56:40;8.90;99.90
17152;DHT22;8691;50.828;4.700;2023-03-11T07:59:17;9.60;99.90
17152;DHT22;8691;50.828;4.700;2023-03-11T08:01:53;10.30;99.90
17152;DHT22;8691;50.828;4.700;2023-03-11T08:04:30;11.00;99.90
17152;DHT22;8691;50.828;4.700;2023-03-11T08:07:07;11.90;99.90
17152;DHT22;8691;50.828;4.700;2023-03-11T08:09:44;12.80;99.90
17152;DHT22;8691;50.828;4.700;2023-03-11T08:12:21;12.80;99.90
17152;DHT22;8691;50.828;4.700;2023-03-11T08:14:58;13.20;98.10
17152;DHT22;8691;50.828;4.700;2023-03-11T08:17:35;13.30;97.40
17152;DHT22;8691;50.828;4.700;2023-03-11T08:20:12;13.30;97.40
17152;DHT22;8691;50.828;4.700;2023-03-11T08:22:48;13.40;97.40
17152;DHT22;8691;50.828;4.700;2023-03-11T08:25:25;13.80;97.20
17152;DHT22;8691;50.828;4.700;2023-03-11T08:28:02;13.80;97.40
17152;DHT22;8691;50.828;4.700;2023-03-11T08:30:38;14.30;95.40
17152;DHT22;8691;50.828;4.700;2023-03-11T08:33:15;14.70;94.90
17152;DHT22;8691;50.828;4.700;2023-03-11T08:35:52;14.70;95.50
17152;DHT22;8691;50.828;4.700;2023-03-11T08:38:28;14.40;95.40
17152;DHT22;8691;50.828;4.700;2023-03-11T08:41:05;14.40;96.20
17152;DHT22;8691;50.828;4.700;2023-03-11T08:43:42;14.80;94.40
17152;DHT22;8691;50.828;4.700;2023-03-11T08:46:25;14.70;95.20
17152;DHT22;8691;50.828;4.700;2023-03-11T08:49:01;14.60;94.80
17152;DHT22;8691;50.828;4.700;2023-03-11T08:51:38;15.20;93.40
17152;DHT22;8691;50.828;4.700;2023-03-11T08:54:15;15.20;93.40
17152;DHT22;8691;50.828;4.700;2023-03-11T08:56:52;15.50;93.70
17152;DHT22;8691;50.828;4.700;2023-03-11T08:59:29;15.90;91.80
17152;DHT22;8691;50.828;4.700;2023-03-11T09:02:05;16.50;90.60
17152;DHT22;8691;50.828;4.700;2023-03-11T09:04:42;16.50;90.50
17152;DHT22;8691;50.828;4.700;2023-03-11T09:07:18;16.50;90.00
17152;DHT22;8691;50.828;4.700;2023-03-11T09:09:55;16.20;89.00
17152;DHT22;8691;50.828;4.700;2023-03-11T09:12:33;16.60;90.70
17152;DHT22;8691;50.828;4.700;2023-03-11T09:15:10;16.30;90.00
17152;DHT22;8691;50.828;4.700;2023-03-11T09:17:47;16.20;90.00
17152;DHT22;8691;50.828;4.700;2023-03-11T09:20:24;15.60;91.30
17152;DHT22;8691;50.828;4.700;2023-03-11T09:23:00;16.00;85.80
17152;DHT22;8691;50.828;4.700;2023-03-11T09:25:37;16.40;82.40
17152;DHT22;8691;50.828;4.700;2023-03-11T09:28:14;15.50;80.40
17152;DHT22;8691;50.828;4.700;2023-03-11T09:30:51;13.50;83.80
17152;DHT22;8691;50.828;4.700;2023-03-11T09:33:28;13.50;83.80
17152;DHT22;8691;50.828;4.700;2023-03-11T09:36:05;12.50;82.20
17152;DHT22;8691;50.828;4.700;2023-03-11T09:38:41;12.20;88.00
17152;DHT22;8691;50.828;4.700;2023-03-11T09:41:27;13.40;82.00
17152;DHT22;8691;50.828;4.700;2023-03-11T09:44:08;13.40;80.90
17152;DHT22;8691;50.828;4.700;2023-03-11T09:46:58;13.40;80.90
17152;DHT22;8691;50.828;4.700;2023-03-11T09:52:42;14.90;78.20
17152;DHT22;8691;50.828;4.700;2023-03-11T09:55:32;14.90;79.00
17152;DHT22;8691;50.828;4.700;2023-03-11T09:58:26;15.20;75.60
17152;DHT22;8691;50.828;4.700;2023-03-11T10:00:58;14.80;73.60
17152;DHT22;8691;50.828;4.700;2023-03-11T10:03:35;13.70;74.30
17152;DHT22;8691;50.828;4.700;2023-03-11T10:06:16;13.00;74.40
17152;DHT22;8691;50.828;4.700;2023-03-11T10:17:56;14.20;70.80
17152;DHT22;8691;50.828;4.700;2023-03-11T10:20:30;14.20;70.80
17152;DHT22;8691;50.828;4.700;2023-03-11T10:26:22;12.70;73.50
17152;DHT22;8691;50.828;4.700;2023-03-11T10:29:06;12.70;73.60
17152;DHT22;8691;50.828;4.700;2023-03-11T10:31:42;12.50;73.70
17152;DHT22;8691;50.828;4.700;2023-03-11T10:34:32;12.50;76.70
17152;DHT22;8691;50.828;4.700;2023-03-11T10:37:19;12.30;78.50
17152;DHT22;8691;50.828;4.700;2023-03-11T10:39:54;11.80;79.80
17152;DHT22;8691;50.828;4.700;2023-03-11T10:42:30;11.60;81.80
17152;DHT22;8691;50.828;4.700;2023-03-11T10:45:12;11.60;81.20
17152;DHT22;8691;50.828;4.700;2023-03-11T10:47:44;11.60;81.20
17152;DHT22;8691;50.828;4.700;2023-03-11T10:50:21;11.50;80.10
17152;DHT22;8691;50.828;4.700;2023-03-11T10:53:08;11.50;79.50
17152;DHT22;8691;50.828;4.700;2023-03-11T10:55:46;11.70;79.80
17152;DHT22;8691;50.828;4.700;2023-03-11T10:58:22;11.60;79.60
17152;DHT22;8691;50.828;4.700;2023-03-11T11:03:44;10.40;79.10
17152;DHT22;8691;50.828;4.700;2023-03-11T11:09:21;10.50;81.80
17152;DHT22;8691;50.828;4.700;2023-03-11T11:12:05;10.90;82.80
17152;DHT22;8691;50.828;4.700;2023-03-11T11:14:44;10.90;82.70
17152;DHT22;8691;50.828;4.700;2023-03-11T11:17:27;11.10;81.50
17152;DHT22;8691;50.828;4.700;2023-03-11T11:20:02;11.40;81.70
17152;DHT22;8691;50.828;4.700;2023-03-11T11:22:49;11.60;82.30
17152;DHT22;8691;50.828;4.700;2023-03-11T11:25:34;11.60;82.90
17152;DHT22;8691;50.828;4.700;2023-03-11T11:28:19;11.40;83.40
17152;DHT22;8691;50.828;4.700;2023-03-11T11:30:59;11.30;84.60
17152;DHT22;8691;50.828;4.700;2023-03-11T11:33:39;11.40;82.00
17152;DHT22;8691;50.828;4.700;2023-03-11T11:36:15;11.60;83.90
17152;DHT22;8691;50.828;4.700;2023-03-11T11:38:52;11.60;81.60
17152;DHT22;8691;50.828;4.700;2023-03-11T11:41:29;11.60;81.50
17152;DHT22;8691;50.828;4.700;2023-03-11T11:44:06;11.40;82.90
17152;DHT22;8691;50.828;4.700;2023-03-11T11:46:54;11.00;80.30
17152;DHT22;8691;50.828;4.700;2023-03-11T11:49:30;10.60;82.80
17152;DHT22;8691;50.828;4.700;2023-03-11T11:52:14;10.60;83.40
17152;DHT22;8691;50.828;4.700;2023-03-11T11:54:51;10.80;84.50
17152;DHT22;8691;50.828;4.700;2023-03-11T11:57:26;11.10;81.10
17152;DHT22;8691;50.828;4.700;2023-03-11T12:00:05;11.10;81.20
17152;DHT22;8691;50.828;4.700;2023-03-11T12:05:31;11.30;84.40
17152;DHT22;8691;50.828;4.700;2023-03-11T12:08:21;11.30;84.80
17152;DHT22;8691;50.828;4.700;2023-03-11T12:11:05;11.00;84.30
17152;DHT22;8691;50.828;4.700;2023-03-11T12:14:06;10.60;85.70
17152;DHT22;8691;50.828;4.700;2023-03-11T12:16:41;10.40;85.30
17152;DHT22;8691;50.828;4.700;2023-03-11T12:19:18;10.20;86.50
17152;DHT22;8691;50.828;4.700;2023-03-11T12:24:55;10.20;86.90
17152;DHT22;8691;50.828;4.700;2023-03-11T12:27:35;10.20;86.30
17152;DHT22;8691;50.828;4.700;2023-03-11T12:30:14;10.20;85.30
17152;DHT22;8691;50.828;4.700;2023-03-11T12:33:08;10.10;85.40
17152;DHT22;8691;50.828;4.700;2023-03-11T12:35:38;10.10;85.00
17152;DHT22;8691;50.828;4.700;2023-03-11T12:38:15;9.90;85.60
17152;DHT22;8691;50.828;4.700;2023-03-11T12:40:58;9.80;85.90
17152;DHT22;8691;50.828;4.700;2023-03-11T12:46:14;9.80;85.40
17152;DHT22;8691;50.828;4.700;2023-03-11T12:49:12;10.10;86.40
17152;DHT22;8691;50.828;4.700;2023-03-11T12:57:41;10.50;85.80
17152;DHT22;8691;50.828;4.700;2023-03-11T13:00:40;10.40;85.70
17152;DHT22;8691;50.828;4.700;2023-03-11T13:06:24;10.50;81.70
17152;DHT22;8691;50.828;4.700;2023-03-11T13:08:56;10.20;83.60
17152;DHT22;8691;50.828;4.700;2023-03-11T13:14:34;9.60;84.20
17152;DHT22;8691;50.828;4.700;2023-03-11T13:17:26;9.60;83.30
17152;DHT22;8691;50.828;4.700;2023-03-11T13:19:58;9.70;81.30
17152;DHT22;8691;50.828;4.700;2023-03-11T13:28:47;10.00;78.80
17152;DHT22;8691;50.828;4.700;2023-03-11T13:31:24;10.00;76.60
17152;DHT22;8691;50.828;4.700;2023-03-11T13:36:54;9.60;82.20
17152;DHT22;8691;50.828;4.700;2023-03-11T13:39:36;9.70;82.30
17152;DHT22;8691;50.828;4.700;2023-03-11T13:42:34;9.70;81.30
17152;DHT22;8691;50.828;4.700;2023-03-11T13:48:14;10.00;82.00
17152;DHT22;8691;50.828;4.700;2023-03-11T13:50:52;10.00;82.00
17152;DHT22;8691;50.828;4.700;2023-03-11T13:53:46;10.40;79.10
17152;DHT22;8691;50.828;4.700;2023-03-11T13:56:25;10.50;80.00
17152;DHT22;8691;50.828;4.700;2023-03-11T14:04:49;10.70;76.90
17152;DHT22;8691;50.828;4.700;2023-03-11T14:07:28;11.00;77.90
17152;DHT22;8691;50.828;4.700;2023-03-11T14:10:23;11.00;76.60
17152;DHT22;8691;50.828;4.700;2023-03-11T14:13:05;10.90;81.30
17152;DHT22;8691;50.828;4.700;2023-03-11T14:16:27;10.80;78.90
17152;DHT22;8691;50.828;4.700;2023-03-11T14:18:28;10.40;78.70
17152;DHT22;8691;50.828;4.700;2023-03-11T14:21:11;10.30;78.00
17152;DHT22;8691;50.828;4.700;2023-03-11T14:23:46;9.70;79.20
17152;DHT22;8691;50.828;4.700;2023-03-11T14:26:20;9.50;80.50
17152;DHT22;8691;50.828;4.700;2023-03-11T14:29:00;9.40;79.30
17152;DHT22;8691;50.828;4.700;2023-03-11T14:31:36;9.40;81.60
17152;DHT22;8691;50.828;4.700;2023-03-11T14:34:21;9.60;81.70
17152;DHT22;8691;50.828;4.700;2023-03-11T14:36:58;9.70;80.40
17152;DHT22;8691;50.828;4.700;2023-03-11T14:39:38;9.80;80.30
17152;DHT22;8691;50.828;4.700;2023-03-11T14:42:24;9.70;83.20
17152;DHT22;8691;50.828;4.700;2023-03-11T14:45:12;9.80;84.00
17152;DHT22;8691;50.828;4.700;2023-03-11T14:50:31;9.60;85.40
17152;DHT22;8691;50.828;4.700;2023-03-11T14:55:51;9.50;84.80
17152;DHT22;8691;50.828;4.700;2023-03-11T14:58:31;9.70;88.40
17152;DHT22;8691;50.828;4.700;2023-03-11T15:01:21;9.70;88.40
17152;DHT22;8691;50.828;4.700;2023-03-11T15:04:10;9.80;86.00
17152;DHT22;8691;50.828;4.700;2023-03-11T15:06:46;9.60;86.50
17152;DHT22;8691;50.828;4.700;2023-03-11T15:09:22;9.60;86.50
17152;DHT22;8691;50.828;4.700;2023-03-11T15:12:00;9.50;87.80
17152;DHT22;8691;50.828;4.700;2023-03-11T15:14:46;9.40;87.40
17152;DHT22;8691;50.828;4.700;2023-03-11T15:17:16;9.30;87.00
17152;DHT22;8691;50.828;4.700;2023-03-11T15:19:51;9.20;89.20
17152;DHT22;8691;50.828;4.700;2023-03-11T15:22:37;9.30;89.10
17152;DHT22;8691;50.828;4.700;2023-03-11T15:25:17;9.30;88.10
17152;DHT22;8691;50.828;4.700;2023-03-11T15:27:50;9.40;87.90
17152;DHT22;8691;50.828;4.700;2023-03-11T15:30:28;9.40;87.80
17152;DHT22;8691;50.828;4.700;2023-03-11T15:33:18;9.30;88.20
17152;DHT22;8691;50.828;4.700;2023-03-11T15:35:45;9.30;86.90
17152;DHT22;8691;50.828;4.700;2023-03-11T15:38:22;9.30;87.30
17152;DHT22;8691;50.828;4.700;2023-03-11T15:40:58;9.20;88.80
17152;DHT22;8691;50.828;4.700;2023-03-11T15:43:41;9.20;87.90
17152;DHT22;8691;50.828;4.700;2023-03-11T15:46:11;9.10;89.00
17152;DHT22;8691;50.828;4.700;2023-03-11T15:48:47;9.00;90.00
17152;DHT22;8691;50.828;4.700;2023-03-11T15:51:25;8.90;89.50
17152;DHT22;8691;50.828;4.700;2023-03-11T15:54:02;8.90;89.50
17152;DHT22;8691;50.828;4.700;2023-03-11T15:56:38;8.90;88.80
17152;DHT22;8691;50.828;4.700;2023-03-11T15:59:15;8.80;89.10
17152;DHT22;8691;50.828;4.700;2023-03-11T16:01:51;8.70;89.90
17152;DHT22;8691;50.828;4.700;2023-03-11T16:04:28;8.70;90.30
17152;DHT22;8691;50.828;4.700;2023-03-11T16:07:05;8.60;90.80
17152;DHT22;8691;50.828;4.700;2023-03-11T16:09:41;8.60;90.60
17152;DHT22;8691;50.828;4.700;2023-03-11T16:12:20;8.50;90.90
17152;DHT22;8691;50.828;4.700;2023-03-11T16:14:55;8.50;91.20
17152;DHT22;8691;50.828;4.700;2023-03-11T16:17:32;8.40;91.60
17152;DHT22;8691;50.828;4.700;2023-03-11T16:20:10;8.30;91.50
17152;DHT22;8691;50.828;4.700;2023-03-11T16:22:47;8.10;91.70
17152;DHT22;8691;50.828;4.700;2023-03-11T16:25:31;7.90;92.00
17152;DHT22;8691;50.828;4.700;2023-03-11T16:28:04;7.90;92.00
17152;DHT22;8691;50.828;4.700;2023-03-11T16:30:40;7.80;92.30
17152;DHT22;8691;50.828;4.700;2023-03-11T16:33:16;7.70;92.70
17152;DHT22;8691;50.828;4.700;2023-03-11T16:35:53;7.70;92.70
17152;DHT22;8691;50.828;4.700;2023-03-11T16:38:32;7.70;92.70
17152;DHT22;8691;50.828;4.700;2023-03-11T16:41:06;7.70;92.70
17152;DHT22;8691;50.828;4.700;2023-03-11T16:43:43;7.70;93.00
17152;DHT22;8691;50.828;4.700;2023-03-11T16:46:20;7.60;93.20
17152;DHT22;8691;50.828;4.700;2023-03-11T16:48:56;7.60;93.40
17152;DHT22;8691;50.828;4.700;2023-03-11T16:51:36;7.50;93.80
17152;DHT22;8691;50.828;4.700;2023-03-11T16:54:10;7.40;94.30
17152;DHT22;8691;50.828;4.700;2023-03-11T16:56:47;7.30;95.40
17152;DHT22;8691;50.828;4.700;2023-03-11T16:59:23;7.30;96.00
17152;DHT22;8691;50.828;4.700;2023-03-11T17:02:00;7.20;96.70
17152;DHT22;8691;50.828;4.700;2023-03-11T17:04:36;7.20;96.20
17152;DHT22;8691;50.828;4.700;2023-03-11T17:07:16;7.20;96.10
17152;DHT22;8691;50.828;4.700;2023-03-11T17:09:52;7.20;95.90
17152;DHT22;8691;50.828;4.700;2023-03-11T17:12:29;7.10;96.50
17152;DHT22;8691;50.828;4.700;2023-03-11T17:15:06;7.10;97.20
17152;DHT22;8691;50.828;4.700;2023-03-11T17:17:42;7.00;97.50
17152;DHT22;8691;50.828;4.700;2023-03-11T17:20:19;6.90;97.30
17152;DHT22;8691;50.828;4.700;2023-03-11T17:22:56;6.80;97.10
17152;DHT22;8691;50.828;4.700;2023-03-11T17:25:33;6.70;97.60
17152;DHT22;8691;50.828;4.700;2023-03-11T17:28:09;6.60;98.00
17152;DHT22;8691;50.828;4.700;2023-03-11T17:30:46;6.60;98.30
17152;DHT22;8691;50.828;4.700;2023-03-11T17:33:23;6.60;98.80
17152;DHT22;8691;50.828;4.700;2023-03-11T17:36:03;6.50;99.10
17152;DHT22;8691;50.828;4.700;2023-03-11T17:38:40;6.40;99.80
17152;DHT22;8691;50.828;4.700;2023-03-11T17:41:16;6.40;99.80
17152;DHT22;8691;50.828;4.700;2023-03-11T17:43:54;6.30;99.90
17152;DHT22;8691;50.828;4.700;2023-03-11T17:46:31;6.30;99.90
17152;DHT22;8691;50.828;4.700;2023-03-11T17:49:08;6.20;99.90
17152;DHT22;8691;50.828;4.700;2023-03-11T17:51:44;6.20;99.90
17152;DHT22;8691;50.828;4.700;2023-03-11T17:54:20;6.10;99.90
17152;DHT22;8691;50.828;4.700;2023-03-11T17:56:58;6.00;99.90
17152;DHT22;8691;50.828;4.700;2023-03-11T17:59:34;6.00;99.90
17152;DHT22;8691;50.828;4.700;2023-03-11T18:02:11;5.90;99.90
17152;DHT22;8691;50.828;4.700;2023-03-11T18:04:49;5.90;99.90
17152;DHT22;8691;50.828;4.700;2023-03-11T18:07:25;5.80;99.90